Time;durP1;ratioP1;P1;durP2;ratioP2;P2;SDS_P1;SDS_P2;PMS_P1;PMS_P2;Temp;Humidity;BMP_temperature;BMP_pressure;BME280_temperature;BME280_humidity;BME280_pressure;Samples;Min_cycle;Max_cycle;Signal;HPM_P1;HPM_P2
2022/07/17 00:01:21;;;;;;;;;;;;;;;;;;4866027;29;19932;-83
2022/07/17 00:03:48;;;;;;;;;;;;;;;;;;4862620;29;20371;-83
2022/07/17 00:06:20;;;;;;;;;;;;;;;;;;4867686;29;19939;-83
2022/07/17 00:08:48;;;;;;;;;;;;;;;;;;4864658;29;20030;-83
2022/07/17 00:11:16;;;;;;;;;;;;;;;;;;4864347;29;19932;-83
2022/07/17 00:13:44;;;;;;;;;;;;;;;;;;4866331;29;19932;-82
2022/07/17 00:16:14;;;;;;;;;;;;;;;;;;4868073;29;20021;-84
2022/07/17 00:19:08;;;;;;;;;;;;;;;;;;;;;
2022/07/17 00:22:36;;;;;;;;;;;;;;;;;;4869351;29;20403;-85
2022/07/17 00:28:03;;;;;;;;;;;;;;;;;;4877503;29;19935;-76
2022/07/17 00:30:30;;;;;;;;;;;;;;;;;;4855045;29;19928;-77
2022/07/17 00:32:57;;;;;;;;;;;;;;;;;;4866379;29;19932;-77
2022/07/17 00:35:24;;;;;;;;;;;;;;;;;;4866356;29;19938;-77
2022/07/17 00:37:52;;;;;;;;;;;;;;;;;;4867076;29;19938;-76
2022/07/17 00:40:19;;;;;;;;;;;;;;;;;;4867359;29;20022;-77
2022/07/17 00:42:46;;;;;;;;;;;;;;;;;;4868167;29;20388;-78
2022/07/17 00:45:14;;;;;;;;;;;;;;;;;;4866192;29;19966;-77
2022/07/17 00:47:42;;;;;;;;;;;;;;;;;;4866253;29;19935;-77
2022/07/17 00:50:10;;;;;;;;;;;;;;;;;;4866941;29;19931;-76
2022/07/17 00:52:37;;;;;;;;;;;;;;;;;;4876433;29;19942;-77
2022/07/17 00:55:04;;;;;;;;;;;;;;;;;;4866084;29;20041;-77
2022/07/17 00:57:54;;;;;;;;;;;;;;;;;;4866346;29;20006;-77
2022/07/17 01:00:21;;;;;;;;;;;;;;;;;;4864372;29;19932;-77
2022/07/17 01:02:49;;;;;;;;;;;;;;;;;;4863624;29;20043;-77
2022/07/17 01:05:16;;;;;;;;;;;;;;;;;;4881068;29;19975;-77
2022/07/17 01:07:46;;;;;;;;;;;;;;;;;;4866823;29;20019;-77
2022/07/17 01:10:13;;;;;;;;;;;;;;;;;;4864591;29;19938;-77
2022/07/17 01:12:41;;;;;;;;;;;;;;;;;;4880002;29;20563;-77
2022/07/17 01:15:08;;;;;;;;;;;;;;;;;;4878630;29;19932;-77
2022/07/17 01:17:35;;;;;;;;;;;;;;;;;;4865395;29;19931;-77
2022/07/17 01:20:03;;;;;;;;;;;;;;;;;;4865137;29;20657;-77
2022/07/17 01:22:30;;;;;;;;;;;;;;;;;;4879845;29;19927;-77
2022/07/17 01:24:58;;;;;;;;;;;;;;;;;;4864589;29;19934;-77
2022/07/17 01:27:25;;;;;;;;;;;;;;;;;;4863943;29;19927;-77
2022/07/17 01:29:52;;;;;;;;;;;;;;;;;;4865860;29;20601;-78
2022/07/17 01:32:20;;;;;;;;;;;;;;;;;;4879111;29;19935;-77
2022/07/17 01:34:47;;;;;;;;;;;;;;;;;;4865266;29;19928;-77
2022/07/17 01:37:14;;;;;;;;;;;;;;;;;;4864929;29;19935;-77
2022/07/17 01:39:54;;;;;;;;;;;;;;;;;;4864370;29;19973;-77
2022/07/17 01:42:21;;;;;;;;;;;;;;;;;;4864349;29;19928;-77
2022/07/17 01:44:49;;;;;;;;;;;;;;;;;;4865334;29;19927;-77
2022/07/17 01:47:16;;;;;;;;;;;;;;;;;;4864838;29;20022;-77
2022/07/17 01:49:43;;;;;;;;;;;;;;;;;;4865210;29;19934;-77
2022/07/17 01:52:10;;;;;;;;;;;;;;;;;;4879331;29;19976;-78
2022/07/17 01:54:38;;;;;;;;;;;;;;;;;;4865085;29;19927;-77
2022/07/17 01:57:05;;;;;;;;;;;;;;;;;;4863951;29;19951;-77
2022/07/17 01:59:32;;;;;;;;;;;;;;;;;;4879078;29;20342;-77
2022/07/17 02:02:00;;;;;;;;;;;;;;;;;;4867418;29;19931;-78
2022/07/17 02:04:27;;;;;;;;;;;;;;;;;;4881042;29;19956;-77
2022/07/17 02:06:54;;;;;;;;;;;;;;;;;;4868625;29;19931;-77
2022/07/17 02:09:22;;;;;;;;;;;;;;;;;;4868026;29;20305;-77
2022/07/17 02:11:49;;;;;;;;;;;;;;;;;;4870698;29;19931;-77
2022/07/17 02:14:18;;;;;;;;;;;;;;;;;;4882786;29;20652;-78
2022/07/17 02:16:45;;;;;;;;;;;;;;;;;;4882543;29;19934;-77
2022/07/17 02:19:13;;;;;;;;;;;;;;;;;;4866084;29;20019;-78
2022/07/17 02:21:40;;;;;;;;;;;;;;;;;;4867110;29;20030;-77
2022/07/17 02:24:08;;;;;;;;;;;;;;;;;;4868767;29;19931;-77
2022/07/17 02:26:35;;;;;;;;;;;;;;;;;;4868462;29;20010;-77
2022/07/17 02:29:02;;;;;;;;;;;;;;;;;;4868490;29;19970;-77
2022/07/17 02:31:29;;;;;;;;;;;;;;;;;;4867615;29;19946;-77
2022/07/17 02:33:57;;;;;;;;;;;;;;;;;;4868905;29;20118;-77
2022/07/17 02:36:25;;;;;;;;;;;;;;;;;;4865506;29;19974;-77
2022/07/17 02:38:52;;;;;;;;;;;;;;;;;;4868823;29;19934;-77
2022/07/17 02:41:19;;;;;;;;;;;;;;;;;;4873793;29;20050;-77
2022/07/17 02:43:46;;;;;;;;;;;;;;;;;;4867257;29;19930;-77
2022/07/17 02:46:14;;;;;;;;;;;;;;;;;;4868512;29;19974;-77
2022/07/17 02:48:41;;;;;;;;;;;;;;;;;;4880517;23;19983;-79
2022/07/17 02:51:08;;;;;;;;;;;;;;;;;;4869725;29;20027;-79
2022/07/17 02:53:36;;;;;;;;;;;;;;;;;;4844647;29;20039;-78
2022/07/17 02:56:03;;;;;;;;;;;;;;;;;;4860953;29;19938;-78
2022/07/17 02:58:30;;;;;;;;;;;;;;;;;;4858197;29;20153;-79
2022/07/17 03:00:57;;;;;;;;;;;;;;;;;;4858923;29;20419;-77
2022/07/17 03:03:25;;;;;;;;;;;;;;;;;;4855569;29;20034;-78
2022/07/17 03:05:52;;;;;;;;;;;;;;;;;;4858721;29;19924;-76
2022/07/17 03:08:19;;;;;;;;;;;;;;;;;;4858806;29;19931;-77
2022/07/17 03:10:47;;;;;;;;;;;;;;;;;;4857487;29;19927;-76
2022/07/17 03:13:14;;;;;;;;;;;;;;;;;;4860508;29;20353;-77
2022/07/17 03:15:41;;;;;;;;;;;;;;;;;;4858037;29;19932;-76
2022/07/17 03:18:08;;;;;;;;;;;;;;;;;;4874376;29;20025;-77
2022/07/17 03:20:36;;;;;;;;;;;;;;;;;;4858565;29;20022;-77
2022/07/17 03:23:03;;;;;;;;;;;;;;;;;;4859746;29;19928;-77
2022/07/17 03:25:30;;;;;;;;;;;;;;;;;;4858272;29;20050;-77
2022/07/17 03:27:58;;;;;;;;;;;;;;;;;;4857064;29;19928;-77
2022/07/17 03:30:25;;;;;;;;;;;;;;;;;;4856288;29;21900;-78
2022/07/17 03:32:52;;;;;;;;;;;;;;;;;;4858593;29;19928;-77
2022/07/17 03:35:20;;;;;;;;;;;;;;;;;;4858195;29;20389;-78
2022/07/17 03:37:47;;;;;;;;;;;;;;;;;;4856920;29;20027;-77
2022/07/17 03:40:14;;;;;;;;;;;;;;;;;;4856783;29;19934;-78
2022/07/17 03:42:43;;;;;;;;;;;;;;;;;;4842798;29;20197;-78
2022/07/17 03:45:10;;;;;;;;;;;;;;;;;;4870813;29;19928;-79
2022/07/17 03:47:37;;;;;;;;;;;;;;;;;;4858312;29;19935;-78
2022/07/17 03:50:05;;;;;;;;;;;;;;;;;;4866476;29;19924;-78
2022/07/17 03:52:32;;;;;;;;;;;;;;;;;;4876530;29;20057;-78
2022/07/17 03:54:59;;;;;;;;;;;;;;;;;;4871744;29;20507;-78
2022/07/17 03:57:27;;;;;;;;;;;;;;;;;;4873368;29;19924;-78
2022/07/17 03:59:54;;;;;;;;;;;;;;;;;;4889476;29;20359;-78
2022/07/17 04:02:21;;;;;;;;;;;;;;;;;;4871146;29;19974;-78
2022/07/17 04:04:49;;;;;;;;;;;;;;;;;;4871479;29;19923;-77
2022/07/17 04:07:28;;;;;;;;;;;;;;;;;;4872902;29;19983;-79
2022/07/17 04:09:56;;;;;;;;;;;;;;;;;;4872034;29;20388;-77
2022/07/17 04:12:23;;;;;;;;;;;;;;;;;;4875404;29;19931;-78
2022/07/17 04:14:50;;;;;;;;;;;;;;;;;;4875861;29;20023;-78
2022/07/17 04:17:17;;;;;;;;;;;;;;;;;;4866672;29;19931;-78
2022/07/17 04:19:45;;;;;;;;;;;;;;;;;;4875707;29;20023;-78
2022/07/17 04:22:12;;;;;;;;;;;;;;;;;;4874133;29;20457;-78
2022/07/17 04:24:39;;;;;;;;;;;;;;;;;;4874558;29;19987;-78
2022/07/17 04:27:06;;;;;;;;;;;;;;;;;;4875147;29;20280;-78
2022/07/17 04:29:34;;;;;;;;;;;;;;;;;;4889376;29;19924;-77
2022/07/17 04:32:01;;;;;;;;;;;;;;;;;;4873570;29;20031;-78
2022/07/17 04:34:28;;;;;;;;;;;;;;;;;;4874671;29;20011;-78
2022/07/17 04:36:55;;;;;;;;;;;;;;;;;;4874787;29;19995;-77
2022/07/17 04:39:23;;;;;;;;;;;;;;;;;;4874301;29;19975;-77
2022/07/17 04:41:50;;;;;;;;;;;;;;;;;;4870110;29;20022;-77
2022/07/17 04:44:18;;;;;;;;;;;;;;;;;;4872948;29;19927;-79
2022/07/17 04:46:45;;;;;;;;;;;;;;;;;;4872831;29;19946;-77
2022/07/17 04:49:12;;;;;;;;;;;;;;;;;;4874258;29;20074;-78
2022/07/17 04:51:40;;;;;;;;;;;;;;;;;;4875927;29;20384;-78
2022/07/17 04:54:07;;;;;;;;;;;;;;;;;;4875620;29;20459;-78
2022/07/17 04:56:34;;;;;;;;;;;;;;;;;;4876484;29;19928;-77
2022/07/17 04:59:01;;;;;;;;;;;;;;;;;;4873914;29;19927;-77
2022/07/17 05:01:29;;;;;;;;;;;;;;;;;;4874377;29;20359;-77
2022/07/17 05:03:57;;;;;;;;;;;;;;;;;;4873803;29;20316;-77
2022/07/17 05:06:24;;;;;;;;;;;;;;;;;;4872302;29;20269;-80
2022/07/17 05:08:51;;;;;;;;;;;;;;;;;;4875250;29;19923;-78
2022/07/17 05:11:18;;;;;;;;;;;;;;;;;;4875138;29;19970;-78
2022/07/17 05:13:46;;;;;;;;;;;;;;;;;;4872625;29;20030;-78
2022/07/17 05:16:13;;;;;;;;;;;;;;;;;;4872335;29;19966;-77
2022/07/17 05:18:41;;;;;;;;;;;;;;;;;;4873387;29;19927;-78
2022/07/17 05:21:08;;;;;;;;;;;;;;;;;;4871112;29;19942;-78
2022/07/17 05:23:35;;;;;;;;;;;;;;;;;;4873478;29;19936;-77
2022/07/17 05:26:03;;;;;;;;;;;;;;;;;;4873273;29;19923;-77
2022/07/17 05:28:30;;;;;;;;;;;;;;;;;;4874434;29;19996;-77
2022/07/17 05:31:03;;;;;;;;;;;;;;;;;;4872830;29;20300;-77
2022/07/17 05:33:31;;;;;;;;;;;;;;;;;;4872734;29;19927;-78
2022/07/17 05:35:58;;;;;;;;;;;;;;;;;;4871600;29;19938;-77
2022/07/17 05:38:25;;;;;;;;;;;;;;;;;;4871535;29;19934;-79
2022/07/17 05:40:52;;;;;;;;;;;;;;;;;;4873363;29;20022;-77
2022/07/17 05:43:20;;;;;;;;;;;;;;;;;;4871622;29;20014;-78
2022/07/17 05:45:47;;;;;;;;;;;;;;;;;;4867035;29;19971;-78
2022/07/17 05:48:15;;;;;;;;;;;;;;;;;;4896061;29;20042;-77
2022/07/17 05:50:42;;;;;;;;;;;;;;;;;;4873061;29;20350;-79
2022/07/17 05:53:09;;;;;;;;;;;;;;;;;;4873703;29;19931;-77
2022/07/17 05:55:36;;;;;;;;;;;;;;;;;;4870186;29;20415;-78
2022/07/17 05:58:04;;;;;;;;;;;;;;;;;;4865098;29;19930;-77
2022/07/17 06:00:31;;;;;;;;;;;;;;;;;;4873189;29;20408;-78
2022/07/17 06:02:58;;;;;;;;;;;;;;;;;;4868542;29;19934;-77
2022/07/17 06:05:26;;;;;;;;;;;;;;;;;;4873763;29;19924;-77
2022/07/17 06:07:53;;;;;;;;;;;;;;;;;;4869778;29;20015;-79
2022/07/17 06:10:20;;;;;;;;;;;;;;;;;;4872172;29;19923;-77
2022/07/17 06:12:47;;;;;;;;;;;;;;;;;;4865521;29;19954;-77
2022/07/17 06:15:15;;;;;;;;;;;;;;;;;;4870591;29;20022;-77
2022/07/17 06:17:42;;;;;;;;;;;;;;;;;;4871567;29;19934;-78
2022/07/17 06:20:10;;;;;;;;;;;;;;;;;;4873296;29;19924;-77
2022/07/17 06:22:37;;;;;;;;;;;;;;;;;;4868935;29;20101;-78
2022/07/17 06:25:05;;;;;;;;;;;;;;;;;;4872301;29;19924;-77
2022/07/17 06:27:32;;;;;;;;;;;;;;;;;;4867575;29;20300;-79
2022/07/17 06:29:59;;;;;;;;;;;;;;;;;;4868242;29;20444;-77
2022/07/17 06:32:26;;;;;;;;;;;;;;;;;;4871111;29;19928;-78
2022/07/17 06:34:54;;;;;;;;;;;;;;;;;;4868911;29;19927;-77
2022/07/17 06:37:21;;;;;;;;;;;;;;;;;;4868039;29;20126;-78
2022/07/17 06:39:48;;;;;;;;;;;;;;;;;;4865649;29;20362;-77
2022/07/17 06:42:15;;;;;;;;;;;;;;;;;;4871361;29;19927;-77
2022/07/17 06:44:43;;;;;;;;;;;;;;;;;;4873238;29;20485;-79
2022/07/17 06:47:10;;;;;;;;;;;;;;;;;;4866603;29;20027;-78
2022/07/17 06:49:37;;;;;;;;;;;;;;;;;;4885243;29;19927;-77
2022/07/17 06:52:05;;;;;;;;;;;;;;;;;;4871355;29;20018;-77
2022/07/17 06:54:32;;;;;;;;;;;;;;;;;;4869360;29;19928;-78
2022/07/17 06:56:59;;;;;;;;;;;;;;;;;;4869743;29;20035;-77
2022/07/17 06:59:27;;;;;;;;;;;;;;;;;;4872062;29;19927;-78
2022/07/17 07:01:54;;;;;;;;;;;;;;;;;;4870089;29;19924;-79
2022/07/17 07:04:21;;;;;;;;;;;;;;;;;;4870482;29;19934;-78
2022/07/17 07:06:49;;;;;;;;;;;;;;;;;;4869123;29;19931;-77
2022/07/17 07:09:16;;;;;;;;;;;;;;;;;;4869116;29;20599;-78
2022/07/17 07:11:43;;;;;;;;;;;;;;;;;;4870632;29;19927;-78
2022/07/17 07:14:10;;;;;;;;;;;;;;;;;;4872014;29;19927;-78
2022/07/17 07:16:38;;;;;;;;;;;;;;;;;;4870293;29;19931;-78
2022/07/17 07:19:05;;;;;;;;;;;;;;;;;;4866910;29;20074;-79
2022/07/17 07:21:33;;;;;;;;;;;;;;;;;;4871360;29;19925;-78
2022/07/17 07:24:00;;;;;;;;;;;;;;;;;;4868238;29;19928;-78
2022/07/17 07:26:27;;;;;;;;;;;;;;;;;;4869924;29;19938;-78
2022/07/17 07:28:55;;;;;;;;;;;;;;;;;;4862912;29;19961;-78
2022/07/17 07:31:22;;;;;;;;;;;;;;;;;;4867482;29;20361;-78
2022/07/17 07:33:49;;;;;;;;;;;;;;;;;;4866498;29;20572;-79
2022/07/17 07:36:17;;;;;;;;;;;;;;;;;;4861898;29;19943;-78
2022/07/17 07:38:45;;;;;;;;;;;;;;;;;;4865874;29;19980;-77
2022/07/17 07:41:12;;;;;;;;;;;;;;;;;;4869860;29;20452;-77
2022/07/17 07:43:40;;;;;;;;;;;;;;;;;;4870330;29;19928;-79
2022/07/17 07:46:07;;;;;;;;;;;;;;;;;;4869186;29;20484;-78
2022/07/17 07:48:35;;;;;;;;;;;;;;;;;;4884526;29;19927;-78
2022/07/17 07:51:02;;;;;;;;;;;;;;;;;;4869464;29;19924;-78
2022/07/17 07:53:30;;;;;;;;;;;;;;;;;;4871726;29;20030;-78
2022/07/17 07:55:57;;;;;;;;;;;;;;;;;;4872056;29;20452;-78
2022/07/17 07:58:24;;;;;;;;;;;;;;;;;;4870662;29;19923;-78
2022/07/17 08:00:57;;;;;;;;;;;;;;;;;;4853264;29;19928;-80
2022/07/17 08:03:24;;;;;;;;;;;;;;;;;;4883073;29;19971;-77
2022/07/17 08:05:52;;;;;;;;;;;;;;;;;;4875178;29;20348;-78
2022/07/17 08:08:19;;;;;;;;;;;;;;;;;;4870095;29;20034;-79
2022/07/17 08:10:46;;;;;;;;;;;;;;;;;;4868847;29;19946;-80
2022/07/17 08:13:14;;;;;;;;;;;;;;;;;;4860274;29;20018;-79
2022/07/17 08:15:41;;;;;;;;;;;;;;;;;;4865113;29;19928;-78
2022/07/17 08:18:08;;;;;;;;;;;;;;;;;;4870930;29;19927;-78
2022/07/17 08:20:36;;;;;;;;;;;;;;;;;;4883153;29;19932;-77
2022/07/17 08:23:03;;;;;;;;;;;;;;;;;;4871262;29;19927;-78
2022/07/17 08:25:32;;;;;;;;;;;;;;;;;;4867155;29;19919;-76
2022/07/17 08:28:00;;;;;;;;;;;;;;;;;;4871107;29;20321;-77
2022/07/17 08:30:27;;;;;;;;;;;;;;;;;;4872692;29;19952;-77
2022/07/17 08:32:54;;;;;;;;;;;;;;;;;;4871543;29;19947;-77
2022/07/17 08:35:22;;;;;;;;;;;;;;;;;;4874738;29;20372;-77
2022/07/17 08:37:49;;;;;;;;;;;;;;;;;;4874970;29;20300;-77
2022/07/17 08:40:17;;;;;;;;;;;;;;;;;;4859891;29;20327;-76
2022/07/17 08:42:44;;;;;;;;;;;;;;;;;;4868237;29;19924;-77
2022/07/17 08:45:14;;;;;;;;;;;;;;;;;;4874880;29;19974;-78
2022/07/17 08:47:41;;;;;;;;;;;;;;;;;;4866282;29;19928;-76
2022/07/17 08:53:04;;;;;;;;;;;;;;;;;;4890183;29;20018;-77
2022/07/17 08:55:32;;;;;;;;;;;;;;;;;;4893134;29;19931;-77
2022/07/17 08:57:59;;;;;;;;;;;;;;;;;;4889814;29;20233;-78
2022/07/17 09:00:26;;;;;;;;;;;;;;;;;;4871141;29;19975;-77
2022/07/17 09:02:54;;;;;;;;;;;;;;;;;;4874324;29;20406;-77
2022/07/17 09:05:21;;;;;;;;;;;;;;;;;;4890568;29;20022;-77
2022/07/17 09:07:48;;;;;;;;;;;;;;;;;;4884903;29;19946;-77
2022/07/17 09:10:16;;;;;;;;;;;;;;;;;;4889493;29;20344;-77
2022/07/17 09:12:43;;;;;;;;;;;;;;;;;;4892215;29;19923;-77
2022/07/17 09:15:10;;;;;;;;;;;;;;;;;;4877000;29;19927;-76
2022/07/17 09:17:37;;;;;;;;;;;;;;;;;;4889608;29;19923;-77
2022/07/17 09:20:05;;;;;;;;;;;;;;;;;;4888615;29;19981;-76
2022/07/17 09:22:32;;;;;;;;;;;;;;;;;;4890879;29;20451;-76
2022/07/17 09:25:00;;;;;;;;;;;;;;;;;;4889147;29;20396;-77
2022/07/17 09:27:27;;;;;;;;;;;;;;;;;;4890756;29;19937;-76
2022/07/17 09:29:55;;;;;;;;;;;;;;;;;;4886585;29;20028;-76
2022/07/17 09:32:23;;;;;;;;;;;;;;;;;;4893664;29;19924;-80
2022/07/17 09:34:50;;;;;;;;;;;;;;;;;;4893574;29;19934;-78
2022/07/17 09:37:17;;;;;;;;;;;;;;;;;;4890130;29;19933;-78
2022/07/17 09:39:44;;;;;;;;;;;;;;;;;;4890978;29;20443;-78
2022/07/17 09:42:12;;;;;;;;;;;;;;;;;;4887309;29;19982;-78
2022/07/17 09:44:39;;;;;;;;;;;;;;;;;;4883849;29;19928;-78
2022/07/17 09:47:06;;;;;;;;;;;;;;;;;;4885886;29;20544;-77
2022/07/17 09:49:33;;;;;;;;;;;;;;;;;;4887528;29;20006;-77
2022/07/17 09:52:01;;;;;;;;;;;;;;;;;;4887214;29;19923;-77
2022/07/17 09:54:28;;;;;;;;;;;;;;;;;;4872541;29;20406;-77
2022/07/17 09:56:55;;;;;;;;;;;;;;;;;;4887611;29;19924;-77
2022/07/17 09:59:23;;;;;;;;;;;;;;;;;;4890859;29;19931;-78
2022/07/17 10:01:51;;;;;;;;;;;;;;;;;;4888159;29;19939;-78
2022/07/17 10:04:18;;;;;;;;;;;;;;;;;;4882311;29;19927;-78
2022/07/17 10:06:46;;;;;;;;;;;;;;;;;;4894793;29;19924;-78
2022/07/17 10:09:13;;;;;;;;;;;;;;;;;;4878664;29;19927;-78
2022/07/17 10:11:40;;;;;;;;;;;;;;;;;;4881184;29;20534;-78
2022/07/17 10:14:13;;;;;;;;;;;;;;;;;;4889537;29;19934;-77
2022/07/17 10:16:40;;;;;;;;;;;;;;;;;;4884885;29;19978;-78
2022/07/17 10:19:08;;;;;;;;;;;;;;;;;;4879592;29;19976;-78
2022/07/17 10:21:35;;;;;;;;;;;;;;;;;;4885090;29;19931;-78
2022/07/17 10:24:03;;;;;;;;;;;;;;;;;;4884778;29;20383;-78
2022/07/17 10:26:30;;;;;;;;;;;;;;;;;;4884224;29;19961;-78
2022/07/17 10:28:57;;;;;;;;;;;;;;;;;;4885363;29;19928;-77
2022/07/17 10:31:25;;;;;;;;;;;;;;;;;;4882288;29;19935;-78
2022/07/17 10:33:52;;;;;;;;;;;;;;;;;;4887813;29;19927;-77
2022/07/17 10:36:19;;;;;;;;;;;;;;;;;;4881528;29;19934;-78
2022/07/17 10:38:47;;;;;;;;;;;;;;;;;;4862269;29;19924;-78
2022/07/17 10:41:14;;;;;;;;;;;;;;;;;;4847760;29;19975;-78
2022/07/17 10:43:44;;;;;;;;;;;;;;;;;;4877760;29;19923;-77
2022/07/17 10:46:11;;;;;;;;;;;;;;;;;;4875808;29;20715;-77
2022/07/17 10:48:39;;;;;;;;;;;;;;;;;;4881538;29;19934;-77
2022/07/17 10:51:06;;;;;;;;;;;;;;;;;;4883033;29;19927;-77
2022/07/17 10:53:33;;;;;;;;;;;;;;;;;;4887951;29;19927;-77
2022/07/17 10:56:03;;;;;;;;;;;;;;;;;;4889293;29;19932;-76
2022/07/17 10:58:32;;;;;;;;;;;;;;;;;;4886105;29;19923;-77
2022/07/17 11:00:59;;;;;;;;;;;;;;;;;;4890944;29;19927;-77
2022/07/17 11:03:26;;;;;;;;;;;;;;;;;;4886945;29;20046;-76
2022/07/17 11:05:54;;;;;;;;;;;;;;;;;;4878600;29;19931;-78
2022/07/17 11:08:21;;;;;;;;;;;;;;;;;;4887137;29;19938;-77
2022/07/17 11:10:49;;;;;;;;;;;;;;;;;;4873247;29;20361;-78
2022/07/17 11:13:16;;;;;;;;;;;;;;;;;;4889749;29;19927;-78
2022/07/17 11:15:43;;;;;;;;;;;;;;;;;;4855903;29;21784;-77
2022/07/17 11:18:11;;;;;;;;;;;;;;;;;;4881467;29;20594;-78
2022/07/17 11:20:39;;;;;;;;;;;;;;;;;;4871039;29;19927;-77
2022/07/17 11:23:06;;;;;;;;;;;;;;;;;;4883895;29;19931;-78
2022/07/17 11:25:33;;;;;;;;;;;;;;;;;;4864460;29;20051;-78
2022/07/17 11:28:00;;;;;;;;;;;;;;;;;;4854216;29;19931;-78
2022/07/17 11:30:29;;;;;;;;;;;;;;;;;;4875182;29;20304;-78
2022/07/17 11:32:58;;;;;;;;;;;;;;;;;;4870864;29;19952;-78
2022/07/17 11:35:26;;;;;;;;;;;;;;;;;;4880102;29;20621;-77
2022/07/17 11:38:09;;;;;;;;;;;;;;;;;;4873521;29;19927;-76
2022/07/17 11:40:36;;;;;;;;;;;;;;;;;;4870824;29;19948;-77
2022/07/17 11:43:05;;;;;;;;;;;;;;;;;;4873258;29;19931;-78
2022/07/17 11:45:32;;;;;;;;;;;;;;;;;;4860624;29;20038;-78
2022/07/17 11:48:00;;;;;;;;;;;;;;;;;;4866710;29;19927;-79
2022/07/17 11:50:27;;;;;;;;;;;;;;;;;;4877169;29;19934;-78
2022/07/17 11:52:54;;;;;;;;;;;;;;;;;;4875201;29;19979;-78
2022/07/17 11:55:22;;;;;;;;;;;;;;;;;;4874188;29;19943;-78
2022/07/17 11:57:49;;;;;;;;;;;;;;;;;;4877107;29;19934;-78
2022/07/17 12:00:17;;;;;;;;;;;;;;;;;;4861874;29;19928;-78
2022/07/17 12:02:44;;;;;;;;;;;;;;;;;;4872277;29;20417;-78
2022/07/17 12:05:11;;;;;;;;;;;;;;;;;;4871354;29;19935;-78
2022/07/17 12:07:39;;;;;;;;;;;;;;;;;;4878524;29;19931;-78
2022/07/17 12:10:06;;;;;;;;;;;;;;;;;;4883952;29;19932;-78
2022/07/17 12:12:33;;;;;;;;;;;;;;;;;;4878311;29;20384;-78
2022/07/17 12:15:01;;;;;;;;;;;;;;;;;;4858076;29;19934;-78
2022/07/17 12:17:28;;;;;;;;;;;;;;;;;;4880004;29;19987;-78
2022/07/17 12:19:55;;;;;;;;;;;;;;;;;;4884503;29;19937;-78
2022/07/17 12:22:23;;;;;;;;;;;;;;;;;;4881356;29;20358;-79
2022/07/17 12:24:50;;;;;;;;;;;;;;;;;;4877787;29;19927;-78
2022/07/17 12:27:18;;;;;;;;;;;;;;;;;;4882090;29;19966;-79
2022/07/17 12:29:45;;;;;;;;;;;;;;;;;;4877208;29;19931;-79
2022/07/17 12:32:12;;;;;;;;;;;;;;;;;;4875608;29;19932;-79
2022/07/17 12:34:44;;;;;;;;;;;;;;;;;;4876821;29;19931;-79
2022/07/17 12:37:12;;;;;;;;;;;;;;;;;;4873263;29;20031;-79
2022/07/17 12:39:39;;;;;;;;;;;;;;;;;;4872241;29;19937;-78
2022/07/17 12:42:07;;;;;;;;;;;;;;;;;;4871935;29;19939;-80
2022/07/17 12:44:34;;;;;;;;;;;;;;;;;;4894204;29;19927;-79
2022/07/17 12:47:02;;;;;;;;;;;;;;;;;;4872967;29;20003;-79
2022/07/17 12:49:30;;;;;;;;;;;;;;;;;;4883878;29;19923;-80
2022/07/17 12:51:57;;;;;;;;;;;;;;;;;;4880066;29;19935;-78
2022/07/17 12:54:24;;;;;;;;;;;;;;;;;;4882889;29;21331;-78
2022/07/17 12:56:52;;;;;;;;;;;;;;;;;;4888820;29;19935;-79
2022/07/17 12:59:19;;;;;;;;;;;;;;;;;;4906355;29;19927;-78
2022/07/17 13:01:47;;;;;;;;;;;;;;;;;;4892998;29;19927;-78
2022/07/17 13:04:15;;;;;;;;;;;;;;;;;;4882964;29;19927;-78
2022/07/17 13:06:42;;;;;;;;;;;;;;;;;;4882027;29;20383;-78
2022/07/17 13:09:09;;;;;;;;;;;;;;;;;;4882293;29;20315;-78
2022/07/17 13:11:36;;;;;;;;;;;;;;;;;;4883783;29;20025;-78
2022/07/17 13:14:06;;;;;;;;;;;;;;;;;;4880858;29;19927;-78
2022/07/17 13:16:34;;;;;;;;;;;;;;;;;;4881357;29;20058;-78
2022/07/17 13:19:01;;;;;;;;;;;;;;;;;;4883235;29;19934;-78
2022/07/17 13:21:28;;;;;;;;;;;;;;;;;;4879993;29;19931;-78
2022/07/17 13:23:55;;;;;;;;;;;;;;;;;;4881731;29;20127;-80
2022/07/17 13:26:23;;;;;;;;;;;;;;;;;;4883781;29;20368;-79
2022/07/17 13:28:50;;;;;;;;;;;;;;;;;;4881755;29;19938;-78
2022/07/17 13:31:18;;;;;;;;;;;;;;;;;;4879403;29;19963;-78
2022/07/17 13:33:45;;;;;;;;;;;;;;;;;;4882144;29;19931;-78
2022/07/17 13:36:13;;;;;;;;;;;;;;;;;;4883183;29;19939;-79
2022/07/17 13:38:40;;;;;;;;;;;;;;;;;;4880082;29;20025;-80
2022/07/17 13:41:10;;;;;;;;;;;;;;;;;;4877066;29;20296;-78
2022/07/17 13:43:37;;;;;;;;;;;;;;;;;;4881102;29;20361;-78
2022/07/17 13:46:04;;;;;;;;;;;;;;;;;;4882177;29;19997;-79
2022/07/17 13:48:31;;;;;;;;;;;;;;;;;;4876386;29;20489;-79
2022/07/17 13:50:59;;;;;;;;;;;;;;;;;;4876999;29;20046;-79
2022/07/17 13:53:26;;;;;;;;;;;;;;;;;;4883893;29;19931;-79
2022/07/17 13:55:54;;;;;;;;;;;;;;;;;;4882644;29;19966;-78
2022/07/17 13:58:21;;;;;;;;;;;;;;;;;;4884161;29;19927;-78
2022/07/17 14:00:49;;;;;;;;;;;;;;;;;;4888197;29;20034;-79
2022/07/17 14:03:16;;;;;;;;;;;;;;;;;;4891001;29;20026;-78
2022/07/17 14:05:43;;;;;;;;;;;;;;;;;;4892739;29;20199;-81
2022/07/17 14:08:11;;;;;;;;;;;;;;;;;;4889235;29;19928;-79
2022/07/17 14:10:38;;;;;;;;;;;;;;;;;;4890657;29;19982;-79
2022/07/17 14:13:05;;;;;;;;;;;;;;;;;;4889571;29;19963;-79
2022/07/17 14:15:33;;;;;;;;;;;;;;;;;;4890843;29;20414;-78
2022/07/17 14:18:00;;;;;;;;;;;;;;;;;;4889856;29;19927;-78
2022/07/17 14:20:29;;;;;;;;;;;;;;;;;;4886859;29;19962;-79
2022/07/17 14:22:56;;;;;;;;;;;;;;;;;;4887868;29;19927;-79
2022/07/17 14:25:23;;;;;;;;;;;;;;;;;;4890825;29;19977;-77
2022/07/17 14:27:50;;;;;;;;;;;;;;;;;;4888706;29;19928;-78
2022/07/17 14:30:18;;;;;;;;;;;;;;;;;;4886122;29;20358;-78
2022/07/17 14:32:45;;;;;;;;;;;;;;;;;;4891571;29;20388;-79
2022/07/17 14:35:12;;;;;;;;;;;;;;;;;;4875910;29;20407;-79
2022/07/17 14:37:40;;;;;;;;;;;;;;;;;;4892325;29;19923;-78
2022/07/17 14:40:10;;;;;;;;;;;;;;;;;;4883461;29;19928;-80
2022/07/17 14:42:37;;;;;;;;;;;;;;;;;;4889833;29;19927;-78
2022/07/17 14:45:04;;;;;;;;;;;;;;;;;;4891306;29;19923;-78
2022/07/17 14:47:31;;;;;;;;;;;;;;;;;;4892552;29;20026;-78
2022/07/17 14:49:59;;;;;;;;;;;;;;;;;;4900873;23;20045;-77
2022/07/17 14:52:26;;;;;;;;;;;;;;;;;;4886441;29;20406;-78
2022/07/17 14:54:53;;;;;;;;;;;;;;;;;;4891442;29;19969;-78
2022/07/17 14:57:21;;;;;;;;;;;;;;;;;;4884327;29;19930;-78
2022/07/17 14:59:48;;;;;;;;;;;;;;;;;;4878095;29;20170;-77
2022/07/17 15:02:15;;;;;;;;;;;;;;;;;;4871386;29;20027;-77
2022/07/17 15:04:43;;;;;;;;;;;;;;;;;;4871777;29;20289;-78
2022/07/17 15:07:10;;;;;;;;;;;;;;;;;;4867189;29;20026;-77
2022/07/17 15:09:37;;;;;;;;;;;;;;;;;;4868768;29;20464;-77
2022/07/17 15:12:05;;;;;;;;;;;;;;;;;;4869679;29;20596;-78
2022/07/17 15:14:32;;;;;;;;;;;;;;;;;;4855639;29;20365;-77
2022/07/17 15:16:59;;;;;;;;;;;;;;;;;;4865680;29;19930;-77
2022/07/17 15:19:26;;;;;;;;;;;;;;;;;;4868106;29;20467;-77
2022/07/17 15:21:54;;;;;;;;;;;;;;;;;;4862431;29;20444;-77
2022/07/17 15:24:21;;;;;;;;;;;;;;;;;;4867747;29;19952;-77
2022/07/17 15:26:48;;;;;;;;;;;;;;;;;;4861441;29;20498;-77
2022/07/17 15:29:16;;;;;;;;;;;;;;;;;;4860048;29;20414;-77
2022/07/17 15:31:43;;;;;;;;;;;;;;;;;;4869879;29;20345;-78
2022/07/17 15:34:11;;;;;;;;;;;;;;;;;;4870956;29;19990;-77
2022/07/17 15:36:38;;;;;;;;;;;;;;;;;;4870165;29;19928;-77
2022/07/17 15:39:05;;;;;;;;;;;;;;;;;;4874159;29;19932;-78
2022/07/17 15:41:33;;;;;;;;;;;;;;;;;;4880725;29;19928;-77
2022/07/17 15:44:00;;;;;;;;;;;;;;;;;;4867971;29;19970;-77
2022/07/17 15:46:28;;;;;;;;;;;;;;;;;;4867714;29;19996;-78
2022/07/17 15:48:55;;;;;;;;;;;;;;;;;;4869562;29;20356;-78
2022/07/17 15:51:23;;;;;;;;;;;;;;;;;;4871966;29;19947;-78
2022/07/17 15:53:50;;;;;;;;;;;;;;;;;;4885947;29;19928;-77
2022/07/17 15:56:18;;;;;;;;;;;;;;;;;;4869833;29;19967;-77
2022/07/17 15:58:45;;;;;;;;;;;;;;;;;;4887700;29;19935;-77
2022/07/17 16:01:12;;;;;;;;;;;;;;;;;;4873676;29;19928;-77
2022/07/17 16:03:40;;;;;;;;;;;;;;;;;;4874022;29;20453;-77
2022/07/17 16:06:15;;;;;;;;;;;;;;;;;;4860175;29;19960;-77
2022/07/17 16:08:42;;;;;;;;;;;;;;;;;;4874077;29;20035;-77
2022/07/17 16:11:09;;;;;;;;;;;;;;;;;;4874454;29;19980;-77
2022/07/17 16:13:37;;;;;;;;;;;;;;;;;;4875381;29;19927;-77
2022/07/17 16:16:04;;;;;;;;;;;;;;;;;;4874883;29;19970;-78
2022/07/17 16:18:31;;;;;;;;;;;;;;;;;;4877892;29;19932;-78
2022/07/17 16:20:59;;;;;;;;;;;;;;;;;;4878901;29;19955;-78
2022/07/17 16:23:26;;;;;;;;;;;;;;;;;;4890343;29;19932;-78
2022/07/17 16:25:53;;;;;;;;;;;;;;;;;;4874475;29;19962;-78
2022/07/17 16:28:21;;;;;;;;;;;;;;;;;;4876987;29;20019;-78
2022/07/17 16:30:48;;;;;;;;;;;;;;;;;;4869577;29;20007;-78
2022/07/17 16:33:15;;;;;;;;;;;;;;;;;;4872198;29;19927;-78
2022/07/17 16:35:43;;;;;;;;;;;;;;;;;;4870216;29;20052;-78
2022/07/17 16:38:10;;;;;;;;;;;;;;;;;;4871700;29;19957;-78
2022/07/17 16:40:37;;;;;;;;;;;;;;;;;;4877561;29;19975;-78
2022/07/17 16:43:04;;;;;;;;;;;;;;;;;;4877299;29;19943;-78
2022/07/17 16:45:32;;;;;;;;;;;;;;;;;;4876759;29;20167;-78
2022/07/17 16:48:04;;;;;;;;;;;;;;;;;;4873379;29;20380;-77
2022/07/17 16:50:31;;;;;;;;;;;;;;;;;;4879212;29;19939;-77
2022/07/17 16:52:59;;;;;;;;;;;;;;;;;;4874740;29;19955;-77
2022/07/17 16:55:26;;;;;;;;;;;;;;;;;;4875132;29;19927;-77